Fenner, New York
Current Conditions -  °F | °C
As of 11:22 AM on Wednesday 26 Nov 2014 (Local Time) from KSYR Reporting Station
Overcast Overcast  
Wind Chill: 30°   Ceiling: 3000
Heat Index: 36°   Visibility: 10mi
Dew Point: 25°   Wind: 7mph
Humidity: 64%   Direction: 80°E
Pressure: 30.15"   Gusts: NA
Location:  42.9403°N, 75.8232°W
Report Text: KSYR 261622Z 08006KT 10SM BKN030 OVC040 02/M04 A3015 RMK AO2 PRESFR BKN V OVC T00221039
Loading
Personal Weather Stations






























Interactive Weather Map New forecast layout! Learn more

10-Day Weather Forecast

Advertisements
Track Severe Weather on mobile